createdAt,value
2023-05-02T00:01:40.892Z,15.54
2023-05-02T00:04:08.190Z,15.48
2023-05-02T00:06:35.453Z,15.36
2023-05-02T00:09:05.330Z,15.37
2023-05-02T00:11:34.300Z,15.34
2023-05-02T00:14:00.865Z,15.43
2023-05-02T00:16:27.573Z,15.48
2023-05-02T00:18:54.256Z,15.53
2023-05-02T00:21:20.842Z,15.58
2023-05-02T00:23:47.423Z,15.52
2023-05-02T00:26:14.030Z,15.32
2023-05-02T00:28:42.262Z,15.29
2023-05-02T00:31:09.444Z,15.32
2023-05-02T00:33:37.849Z,15.20
2023-05-02T00:36:12.973Z,15.06
2023-05-02T00:38:39.569Z,15.11
2023-05-02T00:41:07.018Z,15.17
2023-05-02T00:43:33.735Z,15.00
2023-05-02T00:46:00.359Z,14.92
2023-05-02T00:48:27.102Z,15.16
2023-05-02T00:50:56.050Z,14.99
2023-05-02T00:53:23.022Z,15.22
2023-05-02T00:55:49.642Z,15.35
2023-05-02T00:58:17.968Z,15.12
2023-05-02T01:01:03.324Z,15.20
2023-05-02T01:03:48.890Z,15.35
2023-05-02T01:06:16.852Z,15.36
2023-05-02T01:08:48.631Z,15.34
2023-05-02T01:11:19.493Z,15.53
2023-05-02T01:13:47.224Z,15.48
2023-05-02T01:16:19.121Z,15.48
2023-05-02T01:18:47.494Z,15.22
2023-05-02T01:21:14.053Z,15.29
2023-05-02T01:23:41.087Z,15.17
2023-05-02T01:26:10.898Z,15.05
2023-05-02T01:28:55.926Z,15.04
2023-05-02T01:31:26.328Z,15.05
2023-05-02T01:33:55.120Z,14.98
2023-05-02T01:36:23.388Z,14.84
2023-05-02T01:38:50.052Z,14.75
2023-05-02T01:41:17.202Z,14.85
2023-05-02T01:43:44.500Z,14.67
2023-05-02T01:46:11.601Z,14.78
2023-05-02T01:48:39.009Z,14.65
2023-05-02T01:51:07.399Z,14.56
2023-05-02T01:53:34.794Z,14.40
2023-05-02T01:56:01.698Z,14.44
2023-05-02T01:58:30.763Z,14.32
2023-05-02T02:00:58.372Z,14.39
2023-05-02T02:03:29.884Z,14.35
2023-05-02T02:05:56.918Z,14.19
2023-05-02T02:08:35.946Z,14.16
2023-05-02T02:11:06.382Z,14.13
2023-05-02T02:13:39.190Z,14.23
2023-05-02T02:16:10.170Z,14.09
2023-05-02T02:18:38.953Z,14.21
2023-05-02T02:21:09.854Z,14.03
2023-05-02T02:23:38.215Z,14.11
2023-05-02T02:26:05.170Z,14.17
2023-05-02T02:28:32.044Z,14.18
2023-05-02T02:30:58.651Z,14.07
2023-05-02T02:33:29.974Z,14.12
2023-05-02T02:36:04.325Z,14.05
2023-05-02T02:38:35.362Z,14.22
2023-05-02T02:41:12.594Z,14.08
2023-05-02T02:44:06.179Z,14.07
2023-05-02T02:46:42.090Z,13.95
2023-05-02T02:49:27.056Z,14.10
2023-05-02T02:51:58.330Z,13.94
2023-05-02T02:54:27.393Z,14.15
2023-05-02T02:57:04.679Z,14.03
2023-05-02T02:59:35.825Z,13.94
2023-05-02T03:02:07.141Z,13.90
2023-05-02T03:04:44.434Z,13.87
2023-05-02T03:07:11.224Z,13.90
2023-05-02T03:09:47.939Z,13.76
2023-05-02T03:12:22.244Z,13.82
2023-05-02T03:14:50.562Z,14.16
2023-05-02T03:17:18.674Z,13.95
2023-05-02T03:19:45.727Z,13.88
2023-05-02T03:22:12.474Z,13.91
2023-05-02T03:24:39.811Z,13.59
2023-05-02T03:27:07.735Z,13.81
2023-05-02T03:29:40.164Z,13.71
2023-05-02T03:32:09.373Z,13.56
2023-05-02T03:34:39.683Z,13.68
2023-05-02T03:37:06.333Z,13.63
2023-05-02T03:39:35.919Z,13.35
2023-05-02T03:42:03.011Z,13.13
2023-05-02T03:44:31.928Z,13.17
2023-05-02T03:46:58.618Z,13.45
2023-05-02T03:49:29.301Z,13.68
2023-05-02T03:51:56.222Z,13.44
2023-05-02T03:54:32.296Z,13.20
2023-05-02T03:56:59.949Z,13.10
2023-05-02T03:59:32.412Z,12.98
2023-05-02T04:02:03.297Z,13.07
2023-05-02T04:04:38.631Z,13.01
2023-05-02T04:07:07.832Z,13.13
2023-05-02T04:09:34.415Z,13.09
2023-05-02T04:12:11.464Z,13.27
2023-05-02T04:14:42.600Z,13.12
2023-05-02T04:17:10.012Z,12.97
2023-05-02T04:19:40.659Z,12.91
2023-05-02T04:22:08.110Z,12.84
2023-05-02T04:24:38.932Z,12.78
2023-05-02T04:27:05.535Z,12.83
2023-05-02T04:29:32.609Z,12.89
2023-05-02T04:31:59.810Z,12.89
2023-05-02T04:34:28.632Z,12.80
2023-05-02T04:39:36.603Z,13.09
2023-05-02T04:42:10.861Z,13.02
2023-05-02T04:44:47.438Z,13.12
2023-05-02T04:47:14.080Z,13.05
2023-05-02T04:49:41.081Z,13.19
2023-05-02T04:52:08.187Z,13.23
2023-05-02T04:54:34.815Z,13.14
2023-05-02T04:57:03.616Z,13.13
2023-05-02T04:59:33.960Z,13.28
2023-05-02T05:02:02.449Z,13.21
2023-05-02T05:04:36.527Z,13.38
2023-05-02T05:07:03.225Z,13.31
2023-05-02T05:09:30.064Z,13.52
2023-05-02T05:11:59.747Z,13.45
2023-05-02T05:14:26.406Z,13.46
2023-05-02T05:16:54.705Z,13.43
2023-05-02T05:19:22.158Z,13.37
2023-05-02T05:21:48.982Z,13.41
2023-05-02T05:24:18.542Z,13.20
2023-05-02T05:26:46.345Z,13.60
2023-05-02T05:29:13.549Z,13.40
2023-05-02T05:31:44.903Z,13.49
2023-05-02T05:34:15.007Z,13.25
2023-05-02T05:36:43.108Z,13.56
2023-05-02T05:39:10.652Z,13.74
2023-05-02T05:41:39.477Z,13.64
2023-05-02T05:44:09.200Z,13.76
2023-05-02T05:46:35.938Z,13.96
2023-05-02T05:49:03.805Z,13.75
2023-05-02T05:51:31.516Z,13.41
2023-05-02T05:53:59.431Z,13.46
2023-05-02T05:56:27.035Z,13.37
2023-05-02T05:59:03.268Z,13.47
2023-05-02T06:01:29.872Z,13.54
2023-05-02T06:03:56.814Z,13.78
2023-05-02T06:06:23.734Z,13.60
2023-05-02T06:08:53.420Z,13.40
2023-05-02T06:11:20.656Z,13.44
2023-05-02T06:13:47.334Z,13.29
2023-05-02T06:16:14.333Z,13.19
2023-05-02T06:18:40.973Z,13.40
2023-05-02T06:21:07.659Z,12.95
2023-05-02T06:23:35.493Z,13.11
2023-05-02T06:26:03.361Z,13.14
2023-05-02T06:28:30.149Z,13.27
2023-05-02T06:31:01.307Z,13.35
2023-05-02T06:33:28.454Z,13.28
2023-05-02T06:35:58.168Z,13.30
2023-05-02T06:38:25.860Z,13.56
2023-05-02T06:40:52.412Z,13.68
2023-05-02T06:43:19.203Z,13.60
2023-05-02T06:45:45.787Z,13.60
2023-05-02T06:48:12.434Z,13.25
2023-05-02T06:50:39.164Z,13.24
2023-05-02T06:53:08.533Z,13.35
2023-05-02T06:55:35.077Z,13.38
2023-05-02T06:58:04.524Z,13.54
2023-05-02T07:00:31.219Z,13.07
2023-05-02T07:02:58.049Z,13.32
2023-05-02T07:05:24.612Z,13.11
2023-05-02T07:07:51.175Z,13.58
2023-05-02T07:10:17.737Z,13.51
2023-05-02T07:12:44.361Z,13.55
2023-05-02T07:15:11.460Z,13.55
2023-05-02T07:17:40.396Z,13.49
2023-05-02T07:20:07.747Z,13.00
2023-05-02T07:22:41.734Z,13.02
2023-05-02T07:25:08.586Z,13.00
2023-05-02T07:30:15.767Z,12.96
2023-05-02T07:32:42.335Z,12.99
2023-05-02T07:35:09.597Z,12.91
2023-05-02T07:37:36.981Z,13.04
2023-05-02T07:40:07.422Z,12.57
2023-05-02T07:42:34.010Z,12.84
2023-05-02T07:45:00.760Z,12.52
2023-05-02T07:47:27.572Z,12.24
2023-05-02T07:49:54.534Z,12.51
2023-05-02T07:52:23.562Z,13.02
2023-05-02T07:54:50.468Z,12.79
2023-05-02T07:57:17.319Z,12.90
2023-05-02T07:59:43.891Z,13.13
2023-05-02T08:02:11.335Z,13.31
2023-05-02T08:04:45.470Z,13.19
2023-05-02T08:07:15.552Z,13.32
2023-05-02T08:09:42.358Z,13.27
2023-05-02T08:12:11.243Z,13.32
2023-05-02T08:14:38.106Z,13.56
2023-05-02T08:17:04.632Z,13.65
2023-05-02T08:19:33.306Z,13.57
2023-05-02T08:22:02.969Z,13.78
2023-05-02T08:24:31.000Z,13.48
2023-05-02T08:26:57.608Z,14.01
2023-05-02T08:29:24.427Z,13.91
2023-05-02T08:31:53.138Z,14.06
2023-05-02T08:34:19.841Z,13.91
2023-05-02T08:36:47.274Z,14.08
2023-05-02T08:39:13.949Z,13.97
2023-05-02T08:41:40.761Z,13.99
2023-05-02T08:44:08.867Z,14.27
2023-05-02T08:46:36.336Z,14.20
2023-05-02T08:49:03.269Z,14.61
2023-05-02T08:51:32.766Z,14.18
2023-05-02T08:53:59.927Z,14.32
2023-05-02T08:56:26.784Z,14.58
2023-05-02T08:58:53.466Z,14.29
2023-05-02T09:01:22.734Z,14.01
2023-05-02T09:03:49.956Z,13.74
2023-05-02T09:06:20.735Z,14.25
2023-05-02T09:08:54.835Z,13.98
2023-05-02T09:11:24.546Z,13.86
2023-05-02T09:13:54.540Z,14.11
2023-05-02T09:16:25.558Z,13.79
2023-05-02T09:18:56.511Z,14.18
2023-05-02T09:21:29.176Z,14.36
2023-05-02T09:23:56.934Z,13.90
2023-05-02T09:26:36.761Z,13.60
2023-05-02T09:29:04.711Z,13.45
2023-05-02T09:34:08.849Z,13.76
2023-05-02T09:36:40.002Z,13.74
2023-05-02T09:39:11.902Z,14.10
2023-05-02T09:41:46.635Z,14.12
2023-05-02T09:44:14.402Z,14.02
2023-05-02T09:46:46.006Z,13.38
2023-05-02T09:49:12.664Z,12.94
2023-05-02T09:51:39.333Z,13.67
2023-05-02T09:54:05.937Z,13.21
2023-05-02T09:56:51.711Z,12.99
2023-05-02T09:59:18.365Z,12.75
2023-05-02T10:01:45.100Z,13.52
2023-05-02T10:04:19.541Z,13.75
2023-05-02T10:06:51.005Z,13.75
2023-05-02T10:09:22.028Z,13.73
2023-05-02T10:11:56.038Z,13.39
2023-05-02T10:14:23.529Z,13.70
2023-05-02T10:16:59.860Z,13.87
2023-05-02T10:19:47.958Z,13.77
2023-05-02T10:22:15.675Z,13.31
2023-05-02T10:24:42.570Z,13.66
2023-05-02T10:27:09.289Z,13.66
2023-05-02T10:29:36.169Z,13.53
2023-05-02T10:32:04.585Z,13.78
2023-05-02T10:34:32.394Z,13.84
2023-05-02T10:37:01.538Z,14.10
2023-05-02T10:39:28.618Z,13.38
2023-05-02T10:41:56.594Z,13.75
2023-05-02T10:44:39.804Z,13.86
2023-05-02T10:47:27.125Z,14.11
2023-05-02T10:49:55.466Z,13.94
2023-05-02T10:52:25.746Z,14.22
2023-05-02T10:54:52.516Z,14.01
2023-05-02T10:57:19.158Z,14.54
2023-05-02T10:59:46.541Z,13.92
2023-05-02T11:02:25.509Z,13.65
2023-05-02T11:05:06.067Z,13.06
2023-05-02T11:07:33.542Z,13.19
2023-05-02T11:10:15.369Z,13.88
2023-05-02T11:12:49.255Z,14.15
2023-05-02T11:15:38.600Z,13.78
2023-05-02T11:18:09.387Z,14.52
2023-05-02T11:20:37.033Z,13.60
2023-05-02T11:23:16.264Z,13.75
2023-05-02T11:25:43.766Z,14.55
2023-05-02T11:28:29.078Z,14.48
2023-05-02T11:30:56.756Z,14.41
2023-05-02T11:33:24.538Z,14.98
2023-05-02T11:35:51.360Z,14.62
2023-05-02T11:38:19.604Z,13.95
2023-05-02T11:40:52.444Z,13.51
2023-05-02T11:43:19.702Z,14.18
2023-05-02T11:45:46.387Z,14.23
2023-05-02T11:48:13.791Z,14.21
2023-05-02T11:50:50.459Z,14.59
2023-05-02T11:53:23.280Z,14.08
2023-05-02T11:55:53.992Z,13.72
2023-05-02T11:58:24.272Z,14.08
2023-05-02T12:00:52.532Z,14.01
2023-05-02T12:03:39.389Z,14.02
2023-05-02T12:06:18.941Z,14.24
2023-05-02T12:08:49.068Z,15.28
2023-05-02T12:11:16.714Z,15.70
2023-05-02T12:13:50.502Z,15.90
2023-05-02T12:16:18.444Z,15.31
2023-05-02T12:18:48.499Z,15.11
2023-05-02T12:21:15.557Z,15.13
2023-05-02T12:23:42.546Z,15.61
2023-05-02T12:26:21.935Z,15.27
2023-05-02T12:28:50.533Z,15.51
2023-05-02T12:31:17.274Z,14.76
2023-05-02T12:33:44.751Z,14.27
2023-05-02T12:36:11.867Z,15.20
2023-05-02T12:38:41.091Z,15.68
2023-05-02T12:41:08.090Z,16.23
2023-05-02T12:43:49.575Z,16.53
2023-05-02T12:46:16.620Z,16.53
2023-05-02T12:48:44.858Z,16.11
2023-05-02T12:51:22.536Z,15.23
2023-05-02T12:53:49.214Z,16.17
2023-05-02T12:56:23.996Z,16.97
2023-05-02T12:58:51.442Z,17.53
2023-05-02T13:01:18.083Z,17.06
2023-05-02T13:03:44.859Z,17.76
2023-05-02T13:06:13.787Z,18.47
2023-05-02T13:08:40.486Z,18.57
2023-05-02T13:11:09.385Z,18.05
2023-05-02T13:13:38.144Z,18.95
2023-05-02T13:16:05.170Z,18.25
2023-05-02T13:18:32.107Z,18.22
2023-05-02T13:20:58.745Z,17.85
2023-05-02T13:23:25.443Z,17.48
2023-05-02T13:25:52.113Z,18.65
2023-05-02T13:28:18.949Z,20.77
2023-05-02T13:30:45.555Z,21.02
2023-05-02T13:33:12.246Z,21.49
2023-05-02T13:35:38.810Z,21.33
2023-05-02T13:38:05.420Z,22.23
2023-05-02T13:40:32.024Z,21.37
2023-05-02T13:42:58.740Z,19.74
2023-05-02T13:45:25.388Z,18.95
2023-05-02T13:47:54.872Z,18.98
2023-05-02T13:50:21.538Z,19.74
2023-05-02T13:52:51.303Z,21.66
2023-05-02T13:55:18.066Z,21.83
2023-05-02T13:57:44.973Z,22.49
2023-05-02T14:00:12.082Z,22.61
2023-05-02T14:02:41.739Z,22.15
2023-05-02T14:05:08.797Z,23.01
2023-05-02T14:07:35.370Z,23.97
2023-05-02T14:10:02.109Z,22.66
2023-05-02T14:12:29.063Z,21.91
2023-05-02T14:14:55.740Z,20.64
2023-05-02T14:17:25.625Z,20.73
2023-05-02T14:19:52.650Z,22.35
2023-05-02T14:22:22.091Z,23.33
2023-05-02T14:24:49.023Z,24.04
2023-05-02T14:27:18.402Z,24.65
2023-05-02T14:29:45.655Z,23.85
2023-05-02T14:32:12.313Z,22.03
2023-05-02T14:34:39.150Z,21.63
2023-05-02T14:37:06.033Z,21.81
2023-05-02T14:39:32.632Z,20.84
2023-05-02T14:41:59.312Z,18.82
2023-05-02T14:44:25.941Z,17.67
2023-05-02T14:46:54.354Z,16.93
2023-05-02T14:49:21.139Z,17.43
2023-05-02T14:51:48.834Z,16.91
2023-05-02T14:54:16.888Z,16.97
2023-05-02T14:56:46.581Z,17.43
2023-05-02T14:59:13.853Z,17.45
2023-05-02T15:01:44.431Z,17.00
2023-05-02T15:04:14.305Z,16.90
2023-05-02T15:06:44.121Z,17.04
2023-05-02T15:09:12.093Z,16.57
2023-05-02T15:11:38.634Z,17.04
2023-05-02T15:14:05.500Z,16.39
2023-05-02T15:16:32.204Z,16.29
2023-05-02T15:19:04.207Z,16.73
2023-05-02T15:21:33.039Z,16.87
2023-05-02T15:23:59.954Z,16.82
2023-05-02T15:26:29.835Z,16.68
2023-05-02T15:29:01.806Z,16.36
2023-05-02T15:31:28.618Z,16.18
2023-05-02T15:33:58.299Z,16.04
2023-05-02T15:36:31.139Z,15.43
2023-05-02T15:39:00.035Z,15.42
2023-05-02T15:41:27.552Z,16.23
2023-05-02T15:43:54.152Z,17.06
2023-05-02T15:46:20.904Z,16.90
2023-05-02T15:48:48.034Z,16.50
2023-05-02T15:51:16.936Z,16.01
2023-05-02T15:53:44.975Z,16.15
2023-05-02T15:56:11.909Z,15.88
2023-05-02T15:58:38.881Z,16.64
2023-05-02T16:01:08.268Z,16.74
2023-05-02T16:03:40.347Z,16.61
2023-05-02T16:06:07.747Z,16.63
2023-05-02T16:08:34.578Z,16.45
2023-05-02T16:11:02.739Z,15.96
2023-05-02T16:13:32.222Z,15.40
2023-05-02T16:15:58.942Z,14.68
2023-05-02T16:18:28.601Z,14.91
2023-05-02T16:20:58.401Z,14.23
2023-05-02T16:23:31.114Z,14.40
2023-05-02T16:26:01.752Z,13.96
2023-05-02T16:28:30.324Z,14.40
2023-05-02T16:30:57.084Z,14.46
2023-05-02T16:33:23.701Z,14.17
2023-05-02T16:35:59.639Z,15.02
2023-05-02T16:38:26.773Z,15.44
2023-05-02T16:40:53.345Z,15.00
2023-05-02T16:43:20.244Z,15.33
2023-05-02T16:45:47.203Z,15.43
2023-05-02T16:48:14.715Z,15.85
2023-05-02T16:50:43.565Z,15.59
2023-05-02T16:53:10.174Z,15.79
2023-05-02T16:55:36.836Z,15.32
2023-05-02T16:58:03.393Z,15.23
2023-05-02T17:00:30.703Z,14.12
2023-05-02T17:02:57.299Z,13.85
2023-05-02T17:05:23.964Z,13.45
2023-05-02T17:07:51.238Z,13.66
2023-05-02T17:10:19.108Z,13.47
2023-05-02T17:12:46.809Z,13.49
2023-05-02T17:15:19.180Z,13.27
2023-05-02T17:17:45.826Z,13.46
2023-05-02T17:20:13.322Z,13.02
2023-05-02T17:22:41.548Z,13.34
2023-05-02T17:25:09.083Z,13.68
2023-05-02T17:27:36.369Z,13.55
2023-05-02T17:30:04.273Z,13.26
2023-05-02T17:32:33.390Z,13.26
2023-05-02T17:35:00.005Z,13.48
2023-05-02T17:37:26.574Z,13.24
2023-05-02T17:39:53.119Z,13.69
2023-05-02T17:42:19.791Z,13.62
2023-05-02T17:44:48.423Z,13.12
2023-05-02T17:47:19.784Z,13.68
2023-05-02T17:49:55.838Z,13.31
2023-05-02T17:52:22.497Z,13.25
2023-05-02T17:54:51.399Z,13.38
2023-05-02T17:57:18.097Z,13.35
2023-05-02T17:59:45.695Z,13.33
2023-05-02T18:02:12.338Z,13.26
2023-05-02T18:04:38.989Z,12.87
2023-05-02T18:07:06.290Z,13.02
2023-05-02T18:09:32.957Z,13.35
2023-05-02T18:12:00.597Z,13.09
2023-05-02T18:14:27.184Z,13.08
2023-05-02T18:16:53.791Z,12.90
2023-05-02T18:19:20.436Z,12.99
2023-05-02T18:21:47.044Z,13.02
2023-05-02T18:24:13.636Z,13.12
2023-05-02T18:26:40.383Z,13.28
2023-05-02T18:29:06.999Z,13.07
2023-05-02T18:31:34.898Z,13.25
2023-05-02T18:34:01.544Z,12.66
2023-05-02T18:36:31.622Z,12.38
2023-05-02T18:39:04.381Z,12.67
2023-05-02T18:41:33.306Z,12.41
2023-05-02T18:44:00.738Z,13.00
2023-05-02T18:46:27.773Z,12.54
2023-05-02T18:48:54.351Z,12.63
2023-05-02T18:51:21.727Z,12.59
2023-05-02T18:53:49.175Z,12.38
2023-05-02T18:56:15.916Z,12.62
2023-05-02T18:58:42.999Z,12.53
2023-05-02T19:01:14.903Z,12.99
2023-05-02T19:03:44.800Z,12.90
2023-05-02T19:06:14.322Z,12.63
2023-05-02T19:08:41.020Z,12.50
2023-05-02T19:11:07.676Z,12.68
2023-05-02T19:13:34.313Z,12.40
2023-05-02T19:16:01.178Z,12.27
2023-05-02T19:18:27.991Z,12.14
2023-05-02T19:20:54.609Z,12.33
2023-05-02T19:23:21.209Z,12.51
2023-05-02T19:25:47.860Z,12.70
2023-05-02T19:28:16.825Z,12.92
2023-05-02T19:30:44.275Z,12.91
2023-05-02T19:33:11.342Z,13.00
2023-05-02T19:35:38.037Z,12.64
2023-05-02T19:38:04.644Z,12.38
2023-05-02T19:40:31.322Z,12.31
2023-05-02T19:42:57.896Z,12.36
2023-05-02T19:45:24.501Z,12.20
2023-05-02T19:47:51.163Z,12.38
2023-05-02T19:50:17.811Z,12.12
2023-05-02T19:52:50.730Z,12.51
2023-05-02T19:55:18.581Z,12.58
2023-05-02T19:57:51.104Z,12.30
2023-05-02T20:00:19.946Z,12.35
2023-05-02T20:02:48.683Z,12.27
2023-05-02T20:05:16.651Z,12.19
2023-05-02T20:07:44.593Z,12.26
2023-05-02T20:10:11.295Z,12.37
2023-05-02T20:12:38.030Z,12.09
2023-05-02T20:15:05.367Z,12.01
2023-05-02T20:17:32.016Z,11.99
2023-05-02T20:20:01.139Z,12.03
2023-05-02T20:22:27.834Z,12.50
2023-05-02T20:24:54.467Z,12.02
2023-05-02T20:27:20.980Z,11.79
2023-05-02T20:29:47.594Z,11.88
2023-05-02T20:32:14.242Z,12.04
2023-05-02T20:34:42.977Z,12.14
2023-05-02T20:37:11.726Z,12.04
2023-05-02T20:39:38.322Z,11.61
2023-05-02T20:42:05.611Z,12.21
2023-05-02T20:44:39.177Z,12.04
2023-05-02T20:47:05.822Z,12.22
2023-05-02T20:49:33.210Z,12.03
2023-05-02T20:52:06.333Z,11.97
2023-05-02T20:54:32.946Z,11.95
2023-05-02T20:57:01.972Z,12.02
2023-05-02T20:59:28.582Z,12.10
2023-05-02T21:01:57.780Z,11.94
2023-05-02T21:04:26.729Z,11.77
2023-05-02T21:06:54.997Z,11.53
2023-05-02T21:09:21.564Z,11.54
2023-05-02T21:11:48.187Z,11.31
2023-05-02T21:14:15.748Z,11.14
2023-05-02T21:16:45.244Z,11.43
2023-05-02T21:19:11.802Z,11.36
2023-05-02T21:21:38.433Z,11.26
2023-05-02T21:24:07.728Z,11.27
2023-05-02T21:26:34.518Z,11.08
2023-05-02T21:29:01.288Z,11.01
2023-05-02T21:31:27.846Z,10.85
2023-05-02T21:33:54.489Z,10.72
2023-05-02T21:36:21.109Z,10.74
2023-05-02T21:38:47.689Z,10.56
2023-05-02T21:41:14.232Z,10.69
2023-05-02T21:43:43.130Z,10.63
2023-05-02T21:46:12.884Z,10.64
2023-05-02T21:48:39.659Z,10.27
2023-05-02T21:51:15.622Z,10.40
2023-05-02T21:53:42.622Z,10.38
2023-05-02T21:56:09.788Z,10.21
2023-05-02T21:58:36.393Z,10.10
2023-05-02T22:01:05.986Z,9.97
2023-05-02T22:03:34.632Z,9.99
2023-05-02T22:06:07.909Z,9.27
2023-05-02T22:08:34.710Z,9.27
2023-05-02T22:11:06.930Z,9.44
2023-05-02T22:13:36.991Z,8.88
2023-05-02T22:16:03.762Z,8.93
2023-05-02T22:18:30.408Z,8.82
2023-05-02T22:20:58.686Z,9.15
2023-05-02T22:23:25.402Z,9.09
2023-05-02T22:25:52.064Z,8.88
2023-05-02T22:28:18.663Z,8.54
2023-05-02T22:30:45.444Z,8.73
2023-05-02T22:33:12.854Z,8.90
2023-05-02T22:35:39.737Z,9.01
2023-05-02T22:38:11.031Z,9.09
2023-05-02T22:40:37.637Z,8.96
2023-05-02T22:43:04.327Z,8.60
2023-05-02T22:45:35.190Z,8.72
2023-05-02T22:48:01.946Z,8.70
2023-05-02T22:50:31.350Z,8.57
2023-05-02T22:52:59.658Z,8.53
2023-05-02T22:55:26.261Z,8.33
2023-05-02T22:57:52.902Z,8.95
2023-05-02T23:00:19.892Z,8.64
2023-05-02T23:02:46.582Z,8.79
2023-05-02T23:05:14.274Z,8.36
2023-05-02T23:07:40.968Z,8.10
2023-05-02T23:10:07.954Z,8.54
2023-05-02T23:12:34.614Z,8.63
2023-05-02T23:15:03.455Z,8.46
2023-05-02T23:17:30.211Z,8.39
2023-05-02T23:19:57.101Z,8.54
2023-05-02T23:22:23.701Z,8.46
2023-05-02T23:24:50.329Z,8.32
2023-05-02T23:27:16.941Z,8.15
2023-05-02T23:29:43.483Z,8.01
2023-05-02T23:32:10.185Z,8.47
2023-05-02T23:34:37.190Z,8.34
2023-05-02T23:37:08.680Z,8.44
2023-05-02T23:39:35.339Z,8.24
2023-05-02T23:42:03.855Z,8.06
2023-05-02T23:44:31.277Z,7.63
2023-05-02T23:47:04.030Z,7.76
2023-05-02T23:49:30.797Z,7.86
2023-05-02T23:51:57.369Z,7.59
2023-05-02T23:54:24.030Z,7.48
2023-05-02T23:56:50.719Z,7.25
2023-05-02T23:59:20.054Z,7.36
